sensor_id;sensor_type;location;lat;lon;timestamp;pressure;altitude;pressure_sealevel;temperature;humidity
12963;BME280;6546;49.882;8.666;2023-05-10T00:01:30;99332.19;;;15.21;80.19
12963;BME280;6546;49.882;8.666;2023-05-10T00:03:57;99330.19;;;15.17;80.19
12963;BME280;6546;49.882;8.666;2023-05-10T00:06:23;99331.44;;;15.14;80.76
12963;BME280;6546;49.882;8.666;2023-05-10T00:08:50;99335.84;;;15.14;81.28
12963;BME280;6546;49.882;8.666;2023-05-10T00:11:16;99328.25;;;15.06;80.98
12963;BME280;6546;49.882;8.666;2023-05-10T00:13:44;99334.66;;;15.10;80.92
12963;BME280;6546;49.882;8.666;2023-05-10T00:16:11;99340.47;;;15.12;79.13
12963;BME280;6546;49.882;8.666;2023-05-10T00:18:38;99332.28;;;15.02;80.38
12963;BME280;6546;49.882;8.666;2023-05-10T00:21:05;99337.09;;;15.05;80.65
12963;BME280;6546;49.882;8.666;2023-05-10T00:23:32;99336.69;;;15.08;80.66
12963;BME280;6546;49.882;8.666;2023-05-10T00:25:58;99335.47;;;15.04;80.28
12963;BME280;6546;49.882;8.666;2023-05-10T00:28:27;99340.66;;;15.10;80.05
12963;BME280;6546;49.882;8.666;2023-05-10T00:30:55;99350.16;;;14.98;80.38
12963;BME280;6546;49.882;8.666;2023-05-10T00:33:22;99348.78;;;14.96;80.96
12963;BME280;6546;49.882;8.666;2023-05-10T00:35:48;99349.34;;;14.98;81.74
12963;BME280;6546;49.882;8.666;2023-05-10T00:38:15;99345.91;;;15.04;81.08
12963;BME280;6546;49.882;8.666;2023-05-10T00:40:42;99349.94;;;15.00;81.33
12963;BME280;6546;49.882;8.666;2023-05-10T00:43:09;99351.53;;;15.01;81.23
12963;BME280;6546;49.882;8.666;2023-05-10T00:45:35;99349.34;;;14.98;81.19
12963;BME280;6546;49.882;8.666;2023-05-10T00:48:05;99353.56;;;14.99;81.46
12963;BME280;6546;49.882;8.666;2023-05-10T00:50:32;99351.56;;;14.94;81.93
12963;BME280;6546;49.882;8.666;2023-05-10T00:53:00;99354.97;;;14.95;81.93
12963;BME280;6546;49.882;8.666;2023-05-10T00:55:27;99351.97;;;14.98;81.57
12963;BME280;6546;49.882;8.666;2023-05-10T00:57:55;99363.78;;;15.00;81.89
12963;BME280;6546;49.882;8.666;2023-05-10T01:00:22;99355.94;;;15.00;82.08
12963;BME280;6546;49.882;8.666;2023-05-10T01:02:49;99356.75;;;15.01;82.42
12963;BME280;6546;49.882;8.666;2023-05-10T01:05:17;99362.34;;;15.04;81.92
12963;BME280;6546;49.882;8.666;2023-05-10T01:07:43;99362.75;;;15.08;82.05
12963;BME280;6546;49.882;8.666;2023-05-10T01:10:10;99351.91;;;15.11;81.38
12963;BME280;6546;49.882;8.666;2023-05-10T01:12:39;99356.75;;;15.01;81.74
12963;BME280;6546;49.882;8.666;2023-05-10T01:15:08;99350.75;;;15.00;81.74
12963;BME280;6546;49.882;8.666;2023-05-10T01:17:37;99352.16;;;14.96;81.94
12963;BME280;6546;49.882;8.666;2023-05-10T01:20:09;99357.75;;;15.00;81.81
12963;BME280;6546;49.882;8.666;2023-05-10T01:23:28;99355.53;;;15.03;80.73
12963;BME280;6546;49.882;8.666;2023-05-10T01:26:13;99367.25;;;14.88;81.75
12963;BME280;6546;49.882;8.666;2023-05-10T01:29:31;99358.44;;;14.89;82.06
12963;BME280;6546;49.882;8.666;2023-05-10T01:32:21;99361.63;;;14.91;81.93
12963;BME280;6546;49.882;8.666;2023-05-10T01:34:57;99371.66;;;14.87;81.58
12963;BME280;6546;49.882;8.666;2023-05-10T01:37:33;99370.09;;;14.80;81.89
12963;BME280;6546;49.882;8.666;2023-05-10T01:40:10;99366.06;;;14.77;82.27
12963;BME280;6546;49.882;8.666;2023-05-10T01:42:44;99367.66;;;14.85;81.92
12963;BME280;6546;49.882;8.666;2023-05-10T01:45:20;99371.09;;;14.79;82.35
12963;BME280;6546;49.882;8.666;2023-05-10T01:47:58;99385.72;;;14.80;82.15
12963;BME280;6546;49.882;8.666;2023-05-10T01:50:30;99378.50;;;14.82;81.63
12963;BME280;6546;49.882;8.666;2023-05-10T01:52:58;99372.09;;;14.78;81.68
12963;BME280;6546;49.882;8.666;2023-05-10T01:55:28;99380.69;;;14.85;81.88
12963;BME280;6546;49.882;8.666;2023-05-10T01:58:08;99383.28;;;14.85;81.60
12963;BME280;6546;49.882;8.666;2023-05-10T02:00:36;99384.94;;;14.79;81.68
12963;BME280;6546;49.882;8.666;2023-05-10T02:03:08;99387.31;;;14.81;82.08
12963;BME280;6546;49.882;8.666;2023-05-10T02:05:37;99379.50;;;14.81;82.19
12963;BME280;6546;49.882;8.666;2023-05-10T02:08:06;99377.69;;;14.81;81.56
12963;BME280;6546;49.882;8.666;2023-05-10T02:10:35;99384.94;;;14.79;81.39
12963;BME280;6546;49.882;8.666;2023-05-10T02:13:02;99390.34;;;14.78;81.90
12963;BME280;6546;49.882;8.666;2023-05-10T02:15:30;99392.13;;;14.77;81.97
12963;BME280;6546;49.882;8.666;2023-05-10T02:17:58;99388.53;;;14.78;81.49
12963;BME280;6546;49.882;8.666;2023-05-10T02:20:28;99394.16;;;14.75;81.73
12963;BME280;6546;49.882;8.666;2023-05-10T02:22:56;99392.16;;;14.70;81.56
12963;BME280;6546;49.882;8.666;2023-05-10T02:25:24;99402.00;;;14.68;81.84
12963;BME280;6546;49.882;8.666;2023-05-10T02:27:55;99396.59;;;14.70;82.20
12963;BME280;6546;49.882;8.666;2023-05-10T02:30:22;99404.56;;;14.75;81.58
12963;BME280;6546;49.882;8.666;2023-05-10T02:32:50;99407.19;;;14.68;81.76
12963;BME280;6546;49.882;8.666;2023-05-10T02:35:18;99401.41;;;14.66;82.20
12963;BME280;6546;49.882;8.666;2023-05-10T02:37:47;99401.78;;;14.70;81.57
12963;BME280;6546;49.882;8.666;2023-05-10T02:40:15;99403.59;;;14.69;81.75
12963;BME280;6546;49.882;8.666;2023-05-10T02:42:44;99401.56;;;14.71;81.68
12963;BME280;6546;49.882;8.666;2023-05-10T02:45:13;99396.78;;;14.68;81.83
12963;BME280;6546;49.882;8.666;2023-05-10T02:47:41;99402.56;;;14.70;81.79
12963;BME280;6546;49.882;8.666;2023-05-10T02:50:09;99400.19;;;14.69;81.67
12963;BME280;6546;49.882;8.666;2023-05-10T02:52:44;99400.19;;;14.69;81.89
12963;BME280;6546;49.882;8.666;2023-05-10T02:55:15;99390.97;;;14.66;81.84
12963;BME280;6546;49.882;8.666;2023-05-10T02:57:48;99396.59;;;14.70;81.65
12963;BME280;6546;49.882;8.666;2023-05-10T03:00:17;99401.56;;;14.71;81.42
12963;BME280;6546;49.882;8.666;2023-05-10T03:02:44;99397.78;;;14.67;81.71
12963;BME280;6546;49.882;8.666;2023-05-10T03:05:11;99403.41;;;14.64;81.63
12963;BME280;6546;49.882;8.666;2023-05-10T03:07:37;99406.19;;;14.69;81.74
12963;BME280;6546;49.882;8.666;2023-05-10T03:10:05;99397.78;;;14.67;81.46
12963;BME280;6546;49.882;8.666;2023-05-10T03:12:50;99389.78;;;14.62;81.44
12963;BME280;6546;49.882;8.666;2023-05-10T03:15:22;99399.41;;;14.62;81.60
12963;BME280;6546;49.882;8.666;2023-05-10T03:17:55;99405.00;;;14.59;81.74
12963;BME280;6546;49.882;8.666;2023-05-10T03:20:25;99407.03;;;14.57;81.94
12963;BME280;6546;49.882;8.666;2023-05-10T03:22:59;99404.41;;;14.63;81.38
12963;BME280;6546;49.882;8.666;2023-05-10T03:25:28;99403.81;;;14.61;81.28
12963;BME280;6546;49.882;8.666;2023-05-10T03:27:57;99419.25;;;14.56;81.81
12963;BME280;6546;49.882;8.666;2023-05-10T03:30:26;99416.66;;;14.56;81.47
12963;BME280;6546;49.882;8.666;2023-05-10T03:32:53;99420.25;;;14.55;81.42
12963;BME280;6546;49.882;8.666;2023-05-10T03:35:19;99419.66;;;14.53;81.89
12963;BME280;6546;49.882;8.666;2023-05-10T03:37:46;99418.25;;;14.51;81.75
12963;BME280;6546;49.882;8.666;2023-05-10T03:40:13;99421.06;;;14.56;81.76
12963;BME280;6546;49.882;8.666;2023-05-10T03:42:39;99417.06;;;14.60;81.90
12963;BME280;6546;49.882;8.666;2023-05-10T03:45:09;99419.84;;;14.58;81.95
12963;BME280;6546;49.882;8.666;2023-05-10T03:47:36;99423.03;;;14.60;81.69
12963;BME280;6546;49.882;8.666;2023-05-10T03:50:03;99420.06;;;14.57;81.62
12963;BME280;6546;49.882;8.666;2023-05-10T03:52:30;99421.88;;;14.56;81.54
12963;BME280;6546;49.882;8.666;2023-05-10T03:54:57;99428.25;;;14.60;81.70
12963;BME280;6546;49.882;8.666;2023-05-10T03:57:23;99419.66;;;14.60;81.36
12963;BME280;6546;49.882;8.666;2023-05-10T03:59:50;99424.66;;;14.55;81.39
12963;BME280;6546;49.882;8.666;2023-05-10T04:02:18;99421.63;;;14.64;81.11
12963;BME280;6546;49.882;8.666;2023-05-10T04:04:45;99430.25;;;14.58;81.09
12963;BME280;6546;49.882;8.666;2023-05-10T04:07:11;99418.22;;;14.57;81.64
12963;BME280;6546;49.882;8.666;2023-05-10T04:09:38;99424.25;;;14.58;81.48
12963;BME280;6546;49.882;8.666;2023-05-10T04:12:05;99420.25;;;14.62;81.14
12963;BME280;6546;49.882;8.666;2023-05-10T04:14:32;99424.66;;;14.55;81.02
12963;BME280;6546;49.882;8.666;2023-05-10T04:16:58;99424.66;;;14.55;81.11
12963;BME280;6546;49.882;8.666;2023-05-10T04:19:30;99431.47;;;14.56;81.25
12963;BME280;6546;49.882;8.666;2023-05-10T04:21:56;99431.88;;;14.59;81.48
12963;BME280;6546;49.882;8.666;2023-05-10T04:24:23;99430.66;;;14.62;80.84
12963;BME280;6546;49.882;8.666;2023-05-10T04:26:54;99438.66;;;14.60;81.33
12963;BME280;6546;49.882;8.666;2023-05-10T04:29:20;99440.28;;;14.61;81.24
12963;BME280;6546;49.882;8.666;2023-05-10T04:31:47;99445.88;;;14.65;81.22
12963;BME280;6546;49.882;8.666;2023-05-10T04:34:14;99435.47;;;14.65;80.95
12963;BME280;6546;49.882;8.666;2023-05-10T04:36:42;99435.28;;;14.66;80.89
12963;BME280;6546;49.882;8.666;2023-05-10T04:39:09;99436.69;;;14.62;81.23
12963;BME280;6546;49.882;8.666;2023-05-10T04:41:37;99444.69;;;14.67;81.14
12963;BME280;6546;49.882;8.666;2023-05-10T04:44:04;99440.28;;;14.61;81.24
12963;BME280;6546;49.882;8.666;2023-05-10T04:46:31;99454.09;;;14.68;80.93
12963;BME280;6546;49.882;8.666;2023-05-10T04:48:57;99455.09;;;14.67;81.35
12963;BME280;6546;49.882;8.666;2023-05-10T04:51:24;99455.31;;;14.66;81.05
12963;BME280;6546;49.882;8.666;2023-05-10T04:53:52;99460.53;;;14.66;81.14
12963;BME280;6546;49.882;8.666;2023-05-10T04:56:19;99467.94;;;14.69;81.48
12963;BME280;6546;49.882;8.666;2023-05-10T04:58:45;99460.31;;;14.67;81.13
12963;BME280;6546;49.882;8.666;2023-05-10T05:01:12;99465.75;;;14.66;81.24
12963;BME280;6546;49.882;8.666;2023-05-10T05:03:39;99467.53;;;14.65;81.17
12963;BME280;6546;49.882;8.666;2023-05-10T05:06:06;99467.13;;;14.68;81.09
12963;BME280;6546;49.882;8.666;2023-05-10T05:08:32;99469.16;;;14.66;80.68
12963;BME280;6546;49.882;8.666;2023-05-10T05:11:00;99469.72;;;14.68;80.76
12963;BME280;6546;49.882;8.666;2023-05-10T05:13:27;99474.94;;;14.68;80.76
12963;BME280;6546;49.882;8.666;2023-05-10T05:15:54;99472.75;;;14.65;81.01
12963;BME280;6546;49.882;8.666;2023-05-10T05:18:20;99479.97;;;14.63;81.13
12963;BME280;6546;49.882;8.666;2023-05-10T05:20:47;99477.94;;;14.72;80.94
12963;BME280;6546;49.882;8.666;2023-05-10T05:23:14;99478.56;;;14.67;81.14
12963;BME280;6546;49.882;8.666;2023-05-10T05:25:40;99485.97;;;14.70;80.55
12963;BME280;6546;49.882;8.666;2023-05-10T05:28:08;99486.34;;;14.74;80.35
12963;BME280;6546;49.882;8.666;2023-05-10T05:30:35;99486.56;;;14.73;80.66
12963;BME280;6546;49.882;8.666;2023-05-10T05:33:01;99484.16;;;14.71;80.41
12963;BME280;6546;49.882;8.666;2023-05-10T05:35:28;99480.34;;;14.73;80.36
12963;BME280;6546;49.882;8.666;2023-05-10T05:37:55;99490.75;;;14.80;79.93
12963;BME280;6546;49.882;8.666;2023-05-10T05:40:21;99489.56;;;14.83;80.01
12963;BME280;6546;49.882;8.666;2023-05-10T05:42:48;99485.75;;;14.79;79.33
12963;BME280;6546;49.882;8.666;2023-05-10T05:45:16;99493.78;;;14.77;79.73
12963;BME280;6546;49.882;8.666;2023-05-10T05:47:46;99495.56;;;14.77;79.72
12963;BME280;6546;49.882;8.666;2023-05-10T05:50:12;99489.97;;;14.80;79.82
12963;BME280;6546;49.882;8.666;2023-05-10T05:52:39;99488.75;;;14.82;79.36
12963;BME280;6546;49.882;8.666;2023-05-10T05:55:06;99490.34;;;14.90;79.57
12963;BME280;6546;49.882;8.666;2023-05-10T05:57:33;99503.56;;;14.95;79.18
12963;BME280;6546;49.882;8.666;2023-05-10T05:59:59;99506.34;;;15.00;79.21
12963;BME280;6546;49.882;8.666;2023-05-10T06:02:27;99502.75;;;15.01;79.14
12963;BME280;6546;49.882;8.666;2023-05-10T06:04:54;99505.16;;;15.02;79.49
12963;BME280;6546;49.882;8.666;2023-05-10T06:07:21;99500.13;;;15.07;79.23
12963;BME280;6546;49.882;8.666;2023-05-10T06:09:47;99505.91;;;15.16;78.76
12963;BME280;6546;49.882;8.666;2023-05-10T06:12:14;99509.91;;;15.25;78.27
12963;BME280;6546;49.882;8.666;2023-05-10T06:14:41;99511.50;;;15.33;78.11
12963;BME280;6546;49.882;8.666;2023-05-10T06:17:08;99511.28;;;15.34;77.14
12963;BME280;6546;49.882;8.666;2023-05-10T06:19:36;99519.50;;;15.44;77.67
12963;BME280;6546;49.882;8.666;2023-05-10T06:22:03;99523.06;;;15.56;77.36
12963;BME280;6546;49.882;8.666;2023-05-10T06:24:29;99535.31;;;15.94;76.61
12963;BME280;6546;49.882;8.666;2023-05-10T06:26:56;99533.97;;;16.47;74.39
12963;BME280;6546;49.882;8.666;2023-05-10T06:29:25;99542.03;;;16.70;72.18
12963;BME280;6546;49.882;8.666;2023-05-10T06:31:51;99542.03;;;16.70;71.86
12963;BME280;6546;49.882;8.666;2023-05-10T06:34:19;99537.09;;;16.62;72.15
12963;BME280;6546;49.882;8.666;2023-05-10T06:36:47;99533.75;;;16.49;72.85
12963;BME280;6546;49.882;8.666;2023-05-10T06:39:14;99536.47;;;16.36;73.00
12963;BME280;6546;49.882;8.666;2023-05-10T06:41:41;99544.19;;;16.24;73.82
12963;BME280;6546;49.882;8.666;2023-05-10T06:44:08;99545.47;;;16.15;74.29
12963;BME280;6546;49.882;8.666;2023-05-10T06:46:35;99550.53;;;16.03;74.75
12963;BME280;6546;49.882;8.666;2023-05-10T06:49:01;99538.16;;;15.92;75.25
12963;BME280;6546;49.882;8.666;2023-05-10T06:51:28;99541.94;;;15.96;75.29
12963;BME280;6546;49.882;8.666;2023-05-10T06:53:56;99540.81;;;15.86;75.13
12963;BME280;6546;49.882;8.666;2023-05-10T06:56:23;99546.22;;;15.84;75.88
12963;BME280;6546;49.882;8.666;2023-05-10T06:58:49;99539.03;;;15.80;76.10
12963;BME280;6546;49.882;8.666;2023-05-10T07:01:16;99545.63;;;15.89;76.59
12963;BME280;6546;49.882;8.666;2023-05-10T07:03:42;99548.59;;;15.92;76.98
12963;BME280;6546;49.882;8.666;2023-05-10T07:06:09;99552.19;;;15.98;76.13
12963;BME280;6546;49.882;8.666;2023-05-10T07:08:36;99547.34;;;16.01;75.87
12963;BME280;6546;49.882;8.666;2023-05-10T07:11:05;99553.13;;;16.10;76.12
12963;BME280;6546;49.882;8.666;2023-05-10T07:13:32;99556.09;;;16.13;76.26
12963;BME280;6546;49.882;8.666;2023-05-10T07:15:59;99563.09;;;16.19;75.57
12963;BME280;6546;49.882;8.666;2023-05-10T07:18:27;99559.63;;;16.25;75.20
12963;BME280;6546;49.882;8.666;2023-05-10T07:20:54;99563.75;;;16.15;74.23
12963;BME280;6546;49.882;8.666;2023-05-10T07:23:20;99563.38;;;16.11;75.07
12963;BME280;6546;49.882;8.666;2023-05-10T07:25:48;99563.56;;;16.10;75.37
12963;BME280;6546;49.882;8.666;2023-05-10T07:28:16;99560.94;;;16.10;75.13
12963;BME280;6546;49.882;8.666;2023-05-10T07:30:43;99568.16;;;16.14;75.23
12963;BME280;6546;49.882;8.666;2023-05-10T07:33:12;99564.31;;;16.17;75.71
12963;BME280;6546;49.882;8.666;2023-05-10T07:35:39;99566.53;;;16.20;75.14
12963;BME280;6546;49.882;8.666;2023-05-10T07:38:05;99572.97;;;16.17;75.03
12963;BME280;6546;49.882;8.666;2023-05-10T07:40:32;99572.97;;;16.17;74.96
12963;BME280;6546;49.882;8.666;2023-05-10T07:42:59;99569.34;;;16.18;75.21
12963;BME280;6546;49.882;8.666;2023-05-10T07:45:28;99574.69;;;16.30;75.59
12963;BME280;6546;49.882;8.666;2023-05-10T07:47:55;99571.00;;;16.44;75.07
12963;BME280;6546;49.882;8.666;2023-05-10T07:50:24;99569.53;;;16.55;74.24
12963;BME280;6546;49.882;8.666;2023-05-10T07:52:50;99571.59;;;16.71;74.59
12963;BME280;6546;49.882;8.666;2023-05-10T07:55:18;99571.28;;;16.86;73.15
12963;BME280;6546;49.882;8.666;2023-05-10T07:57:46;99568.06;;;16.84;72.59
12963;BME280;6546;49.882;8.666;2023-05-10T08:00:17;99577.53;;;16.85;72.53
12963;BME280;6546;49.882;8.666;2023-05-10T08:02:46;99580.16;;;16.85;72.79
12963;BME280;6546;49.882;8.666;2023-05-10T08:05:12;99579.72;;;16.88;73.17
12963;BME280;6546;49.882;8.666;2023-05-10T08:07:39;99568.81;;;16.91;73.08
12963;BME280;6546;49.882;8.666;2023-05-10T08:10:07;99576.78;;;17.02;72.57
12963;BME280;6546;49.882;8.666;2023-05-10T08:12:34;99579.41;;;17.02;72.15
12963;BME280;6546;49.882;8.666;2023-05-10T08:15:01;99581.41;;;17.00;72.01
12963;BME280;6546;49.882;8.666;2023-05-10T08:17:28;99578.84;;;16.94;72.69
12963;BME280;6546;49.882;8.666;2023-05-10T08:19:56;99584.88;;;16.94;72.12
12963;BME280;6546;49.882;8.666;2023-05-10T08:22:23;99586.31;;;16.90;71.09
12963;BME280;6546;49.882;8.666;2023-05-10T08:24:49;99583.41;;;16.80;71.62
12963;BME280;6546;49.882;8.666;2023-05-10T08:27:16;99569.78;;;16.71;71.60
12963;BME280;6546;49.882;8.666;2023-05-10T08:29:42;99589.56;;;16.61;72.35
12963;BME280;6546;49.882;8.666;2023-05-10T08:32:09;99592.06;;;16.49;72.76
12963;BME280;6546;49.882;8.666;2023-05-10T08:34:35;99601.16;;;16.40;73.69
12963;BME280;6546;49.882;8.666;2023-05-10T08:37:04;99598.06;;;16.25;74.25
12963;BME280;6546;49.882;8.666;2023-05-10T08:39:34;99598.72;;;16.14;75.32
12963;BME280;6546;49.882;8.666;2023-05-10T08:42:03;99600.38;;;16.02;75.59
12963;BME280;6546;49.882;8.666;2023-05-10T08:44:30;99606.47;;;15.89;76.76
12963;BME280;6546;49.882;8.666;2023-05-10T08:46:59;99602.44;;;15.87;77.15
12963;BME280;6546;49.882;8.666;2023-05-10T08:49:31;99597.06;;;15.82;77.54
12963;BME280;6546;49.882;8.666;2023-05-10T08:52:01;99598.47;;;15.77;77.66
12963;BME280;6546;49.882;8.666;2023-05-10T08:54:31;99603.28;;;15.81;78.43
12963;BME280;6546;49.882;8.666;2023-05-10T08:56:58;99611.31;;;15.86;78.35
12963;BME280;6546;49.882;8.666;2023-05-10T08:59:25;99606.81;;;15.99;78.60
12963;BME280;6546;49.882;8.666;2023-05-10T09:01:52;99611.59;;;16.09;78.10
12963;BME280;6546;49.882;8.666;2023-05-10T09:04:20;99608.31;;;16.20;78.26
12963;BME280;6546;49.882;8.666;2023-05-10T09:06:48;99617.25;;;16.37;78.53
12963;BME280;6546;49.882;8.666;2023-05-10T09:09:15;99618.97;;;16.56;78.29
12963;BME280;6546;49.882;8.666;2023-05-10T09:11:44;99611.25;;;16.68;77.82
12963;BME280;6546;49.882;8.666;2023-05-10T09:14:12;99618.03;;;16.75;77.81
12963;BME280;6546;49.882;8.666;2023-05-10T09:16:39;99618.63;;;16.77;77.27
12963;BME280;6546;49.882;8.666;2023-05-10T09:19:06;99616.00;;;16.77;77.66
12963;BME280;6546;49.882;8.666;2023-05-10T09:21:34;99612.97;;;16.80;77.04
12963;BME280;6546;49.882;8.666;2023-05-10T09:24:03;99610.53;;;16.86;77.05
12963;BME280;6546;49.882;8.666;2023-05-10T09:26:30;99605.81;;;16.94;76.33
12963;BME280;6546;49.882;8.666;2023-05-10T09:28:59;99617.41;;;17.05;76.21
12963;BME280;6546;49.882;8.666;2023-05-10T09:31:43;99613.28;;;17.15;73.93
12963;BME280;6546;49.882;8.666;2023-05-10T09:34:11;99622.88;;;17.21;73.86
12963;BME280;6546;49.882;8.666;2023-05-10T09:36:53;99627.19;;;17.34;74.13
12963;BME280;6546;49.882;8.666;2023-05-10T09:39:20;99621.53;;;17.37;73.77
12963;BME280;6546;49.882;8.666;2023-05-10T09:41:47;99630.31;;;17.24;73.74
12963;BME280;6546;49.882;8.666;2023-05-10T09:44:17;99632.72;;;17.01;72.18
12963;BME280;6546;49.882;8.666;2023-05-10T09:46:49;99639.97;;;16.74;72.95
12963;BME280;6546;49.882;8.666;2023-05-10T09:49:18;99636.28;;;16.57;72.91
12963;BME280;6546;49.882;8.666;2023-05-10T09:51:44;99633.91;;;16.43;73.71
12963;BME280;6546;49.882;8.666;2023-05-10T09:54:15;99632.75;;;16.32;74.31
12963;BME280;6546;49.882;8.666;2023-05-10T09:56:42;99639.81;;;16.32;74.67
12963;BME280;6546;49.882;8.666;2023-05-10T09:59:10;99633.56;;;16.33;75.00
12963;BME280;6546;49.882;8.666;2023-05-10T10:01:38;99637.41;;;16.30;75.44
12963;BME280;6546;49.882;8.666;2023-05-10T10:04:06;99650.03;;;16.33;76.19
12963;BME280;6546;49.882;8.666;2023-05-10T10:06:37;99641.25;;;16.27;75.97
12963;BME280;6546;49.882;8.666;2023-05-10T10:09:04;99641.03;;;16.22;75.72
12963;BME280;6546;49.882;8.666;2023-05-10T10:11:31;99646.88;;;16.24;76.04
12963;BME280;6546;49.882;8.666;2023-05-10T10:13:58;99640.84;;;16.24;76.67
12963;BME280;6546;49.882;8.666;2023-05-10T10:16:26;99638.66;;;16.21;75.96
12963;BME280;6546;49.882;8.666;2023-05-10T10:18:54;99644.81;;;16.33;76.24
12963;BME280;6546;49.882;8.666;2023-05-10T10:21:22;99649.03;;;16.34;75.34
12963;BME280;6546;49.882;8.666;2023-05-10T10:23:49;99645.63;;;16.34;74.44
12963;BME280;6546;49.882;8.666;2023-05-10T10:26:17;99649.47;;;16.31;74.89
12963;BME280;6546;49.882;8.666;2023-05-10T10:28:49;99649.66;;;16.29;75.24
12963;BME280;6546;49.882;8.666;2023-05-10T10:31:26;99654.47;;;16.33;75.12
12963;BME280;6546;49.882;8.666;2023-05-10T10:34:00;99651.44;;;16.36;75.71
12963;BME280;6546;49.882;8.666;2023-05-10T10:36:28;99656.03;;;16.40;76.41
12963;BME280;6546;49.882;8.666;2023-05-10T10:38:58;99652.31;;;16.54;76.29
12963;BME280;6546;49.882;8.666;2023-05-10T10:41:33;99650.66;;;16.73;76.53
12963;BME280;6546;49.882;8.666;2023-05-10T10:44:22;99655.72;;;16.93;76.00
12963;BME280;6546;49.882;8.666;2023-05-10T10:47:03;99653.66;;;17.01;74.88
12963;BME280;6546;49.882;8.666;2023-05-10T10:49:32;99652.41;;;17.04;74.43
12963;BME280;6546;49.882;8.666;2023-05-10T10:52:21;99654.13;;;16.92;74.34
12963;BME280;6546;49.882;8.666;2023-05-10T10:54:51;99652.03;;;16.75;73.99
12963;BME280;6546;49.882;8.666;2023-05-10T10:57:19;99660.28;;;16.72;74.18
12963;BME280;6546;49.882;8.666;2023-05-10T10:59:48;99666.56;;;16.65;73.85
12963;BME280;6546;49.882;8.666;2023-05-10T11:02:33;99663.38;;;16.63;73.95
12963;BME280;6546;49.882;8.666;2023-05-10T11:05:25;99667.81;;;16.62;71.75
12963;BME280;6546;49.882;8.666;2023-05-10T11:07:52;99672.19;;;16.68;72.24
12963;BME280;6546;49.882;8.666;2023-05-10T11:10:19;99671.75;;;16.71;70.83
12963;BME280;6546;49.882;8.666;2023-05-10T11:12:53;99671.59;;;16.66;71.13
12963;BME280;6546;49.882;8.666;2023-05-10T11:15:29;99673.22;;;16.54;69.97
12963;BME280;6546;49.882;8.666;2023-05-10T11:17:56;99672.72;;;16.39;70.14
12963;BME280;6546;49.882;8.666;2023-05-10T11:20:27;99678.19;;;16.31;69.76
12963;BME280;6546;49.882;8.666;2023-05-10T11:23:11;99679.00;;;16.32;69.51
12963;BME280;6546;49.882;8.666;2023-05-10T11:25:41;99680.63;;;16.26;71.30
12963;BME280;6546;49.882;8.666;2023-05-10T11:28:09;99677.00;;;16.27;71.89
12963;BME280;6546;49.882;8.666;2023-05-10T11:30:36;99679.81;;;16.25;71.81
12963;BME280;6546;49.882;8.666;2023-05-10T11:33:03;99669.34;;;16.32;72.11
12963;BME280;6546;49.882;8.666;2023-05-10T11:35:36;99675.72;;;16.43;72.25
12963;BME280;6546;49.882;8.666;2023-05-10T11:38:05;99682.69;;;16.62;72.29
12963;BME280;6546;49.882;8.666;2023-05-10T11:40:32;99685.16;;;16.82;72.00
12963;BME280;6546;49.882;8.666;2023-05-10T11:42:59;99687.75;;;17.13;72.23
12963;BME280;6546;49.882;8.666;2023-05-10T11:45:26;99676.19;;;17.45;70.30
12963;BME280;6546;49.882;8.666;2023-05-10T11:47:53;99672.19;;;17.86;69.91
12963;BME280;6546;49.882;8.666;2023-05-10T11:50:20;99682.94;;;18.14;68.60
12963;BME280;6546;49.882;8.666;2023-05-10T11:52:51;99670.75;;;18.38;67.00
12963;BME280;6546;49.882;8.666;2023-05-10T11:55:18;99667.53;;;18.54;64.94
12963;BME280;6546;49.882;8.666;2023-05-10T11:57:45;99670.97;;;18.66;64.22
12963;BME280;6546;49.882;8.666;2023-05-10T12:00:13;99671.88;;;18.60;63.66
12963;BME280;6546;49.882;8.666;2023-05-10T12:02:40;99669.97;;;18.67;64.33
12963;BME280;6546;49.882;8.666;2023-05-10T12:05:07;99656.63;;;18.68;64.46
12963;BME280;6546;49.882;8.666;2023-05-10T12:07:34;99672.09;;;19.00;63.93
12963;BME280;6546;49.882;8.666;2023-05-10T12:10:07;99673.69;;;19.01;59.70
12963;BME280;6546;49.882;8.666;2023-05-10T12:12:38;99679.53;;;19.03;63.90
12963;BME280;6546;49.882;8.666;2023-05-10T12:15:11;99670.94;;;19.07;62.67
12963;BME280;6546;49.882;8.666;2023-05-10T12:17:38;99677.44;;;19.05;60.02
12963;BME280;6546;49.882;8.666;2023-05-10T12:20:15;99672.09;;;19.00;61.63
12963;BME280;6546;49.882;8.666;2023-05-10T12:22:49;99669.22;;;18.90;61.04
12963;BME280;6546;49.882;8.666;2023-05-10T12:25:18;99672.16;;;18.81;59.18
12963;BME280;6546;49.882;8.666;2023-05-10T12:27:49;99670.63;;;18.62;61.53
12963;BME280;6546;49.882;8.666;2023-05-10T12:30:19;99670.06;;;18.42;61.94
12963;BME280;6546;49.882;8.666;2023-05-10T12:32:46;99669.66;;;18.27;61.76
12963;BME280;6546;49.882;8.666;2023-05-10T12:35:13;99666.28;;;18.08;64.69
12963;BME280;6546;49.882;8.666;2023-05-10T12:37:40;99664.75;;;18.01;64.98
12963;BME280;6546;49.882;8.666;2023-05-10T12:40:08;99673.22;;;18.03;64.76
12963;BME280;6546;49.882;8.666;2023-05-10T12:42:37;99674.50;;;18.12;63.72
12963;BME280;6546;49.882;8.666;2023-05-10T12:45:06;99680.50;;;18.30;63.06
12963;BME280;6546;49.882;8.666;2023-05-10T12:47:33;99678.75;;;18.43;59.80
12963;BME280;6546;49.882;8.666;2023-05-10T12:50:01;99684.63;;;18.56;56.90
12963;BME280;6546;49.882;8.666;2023-05-10T12:52:28;99682.28;;;18.66;56.67
12963;BME280;6546;49.882;8.666;2023-05-10T12:54:55;99686.50;;;18.67;57.31
12963;BME280;6546;49.882;8.666;2023-05-10T12:57:22;99690.16;;;18.66;56.64
12963;BME280;6546;49.882;8.666;2023-05-10T12:59:50;99689.97;;;18.79;58.62
12963;BME280;6546;49.882;8.666;2023-05-10T13:02:16;99693.50;;;18.85;59.92
12963;BME280;6546;49.882;8.666;2023-05-10T13:04:44;99687.09;;;18.81;56.83
12963;BME280;6546;49.882;8.666;2023-05-10T13:07:11;99692.44;;;18.74;58.43
12963;BME280;6546;49.882;8.666;2023-05-10T13:09:38;99686.28;;;18.69;60.12
12963;BME280;6546;49.882;8.666;2023-05-10T13:12:07;99688.19;;;18.62;60.42
12963;BME280;6546;49.882;8.666;2023-05-10T13:14:34;99683.84;;;18.56;59.00
12963;BME280;6546;49.882;8.666;2023-05-10T13:17:02;99698.00;;;18.48;60.77
12963;BME280;6546;49.882;8.666;2023-05-10T13:19:28;99691.72;;;18.38;60.42